sensor_id;sensor_type;location;lat;lon;timestamp;P1;durP1;ratioP1;P2;durP2;ratioP2
4527;SDS011;2276;51.520;6.818;2022-07-04T00:04:06;2.15;;;0.73;;
4527;SDS011;2276;51.520;6.818;2022-07-04T00:09:11;3.67;;;1.73;;
4527;SDS011;2276;51.520;6.818;2022-07-04T00:14:13;2.28;;;1.00;;
4527;SDS011;2276;51.520;6.818;2022-07-04T00:19:16;3.55;;;1.10;;
4527;SDS011;2276;51.520;6.818;2022-07-04T00:24:20;1.95;;;1.30;;
4527;SDS011;2276;51.520;6.818;2022-07-04T00:29:23;1.60;;;0.80;;
4527;SDS011;2276;51.520;6.818;2022-07-04T00:34:26;3.58;;;1.77;;
4527;SDS011;2276;51.520;6.818;2022-07-04T00:39:30;2.65;;;1.17;;
4527;SDS011;2276;51.520;6.818;2022-07-04T00:44:32;3.95;;;1.23;;
4527;SDS011;2276;51.520;6.818;2022-07-04T00:49:37;1.90;;;1.40;;
4527;SDS011;2276;51.520;6.818;2022-07-04T00:54:42;3.58;;;1.15;;
4527;SDS011;2276;51.520;6.818;2022-07-04T00:59:46;3.08;;;1.10;;
4527;SDS011;2276;51.520;6.818;2022-07-04T01:04:49;4.15;;;1.45;;
4527;SDS011;2276;51.520;6.818;2022-07-04T01:09:54;5.50;;;1.63;;
4527;SDS011;2276;51.520;6.818;2022-07-04T01:14:57;2.30;;;1.65;;
4527;SDS011;2276;51.520;6.818;2022-07-04T01:20:00;2.08;;;1.50;;
4527;SDS011;2276;51.520;6.818;2022-07-04T01:25:05;2.35;;;1.58;;
4527;SDS011;2276;51.520;6.818;2022-07-04T01:30:08;3.30;;;1.02;;
4527;SDS011;2276;51.520;6.818;2022-07-04T01:35:12;2.95;;;1.55;;
4527;SDS011;2276;51.520;6.818;2022-07-04T01:40:15;1.98;;;1.48;;
4527;SDS011;2276;51.520;6.818;2022-07-04T01:45:18;4.95;;;2.33;;
4527;SDS011;2276;51.520;6.818;2022-07-04T01:50:21;4.72;;;1.10;;
4527;SDS011;2276;51.520;6.818;2022-07-04T01:55:25;2.20;;;1.38;;
4527;SDS011;2276;51.520;6.818;2022-07-04T02:00:28;2.53;;;1.58;;
4527;SDS011;2276;51.520;6.818;2022-07-04T02:05:48;2.38;;;1.83;;
4527;SDS011;2276;51.520;6.818;2022-07-04T02:10:52;3.38;;;2.15;;
4527;SDS011;2276;51.520;6.818;2022-07-04T02:15:54;8.95;;;2.72;;
4527;SDS011;2276;51.520;6.818;2022-07-04T02:20:57;4.38;;;2.70;;
4527;SDS011;2276;51.520;6.818;2022-07-04T02:26:01;2.28;;;1.33;;
4527;SDS011;2276;51.520;6.818;2022-07-04T02:31:04;5.55;;;1.95;;
4527;SDS011;2276;51.520;6.818;2022-07-04T02:36:07;3.60;;;2.72;;
4527;SDS011;2276;51.520;6.818;2022-07-04T02:41:11;6.78;;;3.30;;
4527;SDS011;2276;51.520;6.818;2022-07-04T02:46:13;14.13;;;9.70;;
4527;SDS011;2276;51.520;6.818;2022-07-04T02:51:16;12.70;;;8.90;;
4527;SDS011;2276;51.520;6.818;2022-07-04T02:56:20;9.57;;;6.80;;
4527;SDS011;2276;51.520;6.818;2022-07-04T03:01:23;10.55;;;6.53;;
4527;SDS011;2276;51.520;6.818;2022-07-04T03:06:26;9.68;;;6.78;;
4527;SDS011;2276;51.520;6.818;2022-07-04T03:11:30;11.45;;;6.05;;
4527;SDS011;2276;51.520;6.818;2022-07-04T03:16:32;8.63;;;4.70;;
4527;SDS011;2276;51.520;6.818;2022-07-04T03:21:35;6.32;;;3.47;;
4527;SDS011;2276;51.520;6.818;2022-07-04T03:26:39;7.10;;;4.05;;
4527;SDS011;2276;51.520;6.818;2022-07-04T03:31:42;5.25;;;3.47;;
4527;SDS011;2276;51.520;6.818;2022-07-04T03:36:45;4.93;;;3.00;;
4527;SDS011;2276;51.520;6.818;2022-07-04T03:41:49;6.28;;;4.03;;
4527;SDS011;2276;51.520;6.818;2022-07-04T03:46:51;14.00;;;6.65;;
4527;SDS011;2276;51.520;6.818;2022-07-04T03:51:54;7.85;;;4.05;;
4527;SDS011;2276;51.520;6.818;2022-07-04T03:56:58;8.10;;;4.10;;
4527;SDS011;2276;51.520;6.818;2022-07-04T04:02:01;9.20;;;4.70;;
4527;SDS011;2276;51.520;6.818;2022-07-04T04:07:04;10.10;;;3.63;;
4527;SDS011;2276;51.520;6.818;2022-07-04T04:12:08;6.53;;;4.55;;
4527;SDS011;2276;51.520;6.818;2022-07-04T04:17:11;10.63;;;3.90;;
4527;SDS011;2276;51.520;6.818;2022-07-04T04:22:14;7.65;;;3.83;;
4527;SDS011;2276;51.520;6.818;2022-07-04T04:27:18;13.45;;;4.32;;
4527;SDS011;2276;51.520;6.818;2022-07-04T04:32:20;8.07;;;4.40;;
4527;SDS011;2276;51.520;6.818;2022-07-04T04:37:23;10.30;;;4.78;;
4527;SDS011;2276;51.520;6.818;2022-07-04T04:42:28;12.77;;;4.60;;
4527;SDS011;2276;51.520;6.818;2022-07-04T04:47:31;9.38;;;6.00;;
4527;SDS011;2276;51.520;6.818;2022-07-04T04:52:33;7.82;;;3.28;;
4527;SDS011;2276;51.520;6.818;2022-07-04T04:57:37;9.52;;;5.05;;
4527;SDS011;2276;51.520;6.818;2022-07-04T05:02:40;10.20;;;4.95;;
4527;SDS011;2276;51.520;6.818;2022-07-04T05:07:43;7.60;;;4.70;;
4527;SDS011;2276;51.520;6.818;2022-07-04T05:12:47;6.63;;;4.28;;
4527;SDS011;2276;51.520;6.818;2022-07-04T05:17:50;20.08;;;5.47;;
4527;SDS011;2276;51.520;6.818;2022-07-04T05:22:52;12.88;;;4.63;;
4527;SDS011;2276;51.520;6.818;2022-07-04T05:27:56;7.80;;;4.93;;
4527;SDS011;2276;51.520;6.818;2022-07-04T05:32:59;14.43;;;5.70;;
4527;SDS011;2276;51.520;6.818;2022-07-04T05:38:02;13.15;;;5.28;;
4527;SDS011;2276;51.520;6.818;2022-07-04T05:43:07;8.65;;;4.70;;
4527;SDS011;2276;51.520;6.818;2022-07-04T05:48:09;17.65;;;7.10;;
4527;SDS011;2276;51.520;6.818;2022-07-04T05:53:12;10.20;;;5.25;;
4527;SDS011;2276;51.520;6.818;2022-07-04T05:58:16;11.80;;;6.43;;
4527;SDS011;2276;51.520;6.818;2022-07-04T06:03:19;9.48;;;5.90;;
4527;SDS011;2276;51.520;6.818;2022-07-04T06:13:28;16.65;;;6.03;;
4527;SDS011;2276;51.520;6.818;2022-07-04T06:18:31;13.57;;;5.65;;
4527;SDS011;2276;51.520;6.818;2022-07-04T06:23:34;14.50;;;5.55;;
4527;SDS011;2276;51.520;6.818;2022-07-04T06:28:38;9.23;;;3.78;;
4527;SDS011;2276;51.520;6.818;2022-07-04T06:33:48;7.93;;;3.30;;
4527;SDS011;2276;51.520;6.818;2022-07-04T06:39:08;7.40;;;3.28;;
4527;SDS011;2276;51.520;6.818;2022-07-04T06:44:12;6.10;;;2.78;;
4527;SDS011;2276;51.520;6.818;2022-07-04T06:49:15;4.88;;;2.38;;
4527;SDS011;2276;51.520;6.818;2022-07-04T06:54:18;3.97;;;2.30;;
4527;SDS011;2276;51.520;6.818;2022-07-04T06:59:22;5.22;;;3.08;;
4527;SDS011;2276;51.520;6.818;2022-07-04T07:04:24;6.45;;;1.40;;
4527;SDS011;2276;51.520;6.818;2022-07-04T07:09:27;3.15;;;1.50;;
4527;SDS011;2276;51.520;6.818;2022-07-04T07:14:32;4.32;;;1.25;;
4527;SDS011;2276;51.520;6.818;2022-07-04T07:19:35;3.22;;;1.38;;
4527;SDS011;2276;51.520;6.818;2022-07-04T07:24:38;3.50;;;1.13;;
4527;SDS011;2276;51.520;6.818;2022-07-04T07:29:42;9.38;;;3.10;;
4527;SDS011;2276;51.520;6.818;2022-07-04T07:34:45;6.72;;;2.15;;
4527;SDS011;2276;51.520;6.818;2022-07-04T07:39:48;4.70;;;0.90;;
4527;SDS011;2276;51.520;6.818;2022-07-04T07:44:52;2.70;;;1.67;;
4527;SDS011;2276;51.520;6.818;2022-07-04T07:49:55;2.47;;;1.20;;
4527;SDS011;2276;51.520;6.818;2022-07-04T07:54:58;3.70;;;1.20;;
4527;SDS011;2276;51.520;6.818;2022-07-04T08:00:04;5.63;;;2.30;;
4527;SDS011;2276;51.520;6.818;2022-07-04T08:05:08;5.90;;;1.73;;
4527;SDS011;2276;51.520;6.818;2022-07-04T08:10:11;6.20;;;3.10;;
4527;SDS011;2276;51.520;6.818;2022-07-04T08:15:15;6.32;;;2.00;;
4527;SDS011;2276;51.520;6.818;2022-07-04T08:20:18;5.80;;;2.30;;
4527;SDS011;2276;51.520;6.818;2022-07-04T08:25:21;6.70;;;2.13;;
4527;SDS011;2276;51.520;6.818;2022-07-04T08:30:25;6.90;;;1.88;;
4527;SDS011;2276;51.520;6.818;2022-07-04T08:35:28;4.43;;;1.63;;
4527;SDS011;2276;51.520;6.818;2022-07-04T08:40:30;3.67;;;1.48;;
4527;SDS011;2276;51.520;6.818;2022-07-04T08:45:36;3.25;;;1.30;;
4527;SDS011;2276;51.520;6.818;2022-07-04T08:50:41;3.50;;;1.58;;
4527;SDS011;2276;51.520;6.818;2022-07-04T08:55:47;2.80;;;0.98;;
4527;SDS011;2276;51.520;6.818;2022-07-04T09:01:09;4.57;;;1.80;;
4527;SDS011;2276;51.520;6.818;2022-07-04T09:06:15;5.85;;;1.35;;
4527;SDS011;2276;51.520;6.818;2022-07-04T09:11:18;3.03;;;0.98;;
4527;SDS011;2276;51.520;6.818;2022-07-04T09:16:22;4.45;;;1.60;;
4527;SDS011;2276;51.520;6.818;2022-07-04T09:26:46;2.03;;;1.25;;
4527;SDS011;2276;51.520;6.818;2022-07-04T09:31:50;4.47;;;1.88;;
4527;SDS011;2276;51.520;6.818;2022-07-04T09:36:55;3.97;;;1.45;;
4527;SDS011;2276;51.520;6.818;2022-07-04T09:42:06;6.75;;;2.15;;
4527;SDS011;2276;51.520;6.818;2022-07-04T09:47:18;4.30;;;1.17;;
4527;SDS011;2276;51.520;6.818;2022-07-04T09:52:24;3.72;;;1.98;;
4527;SDS011;2276;51.520;6.818;2022-07-04T09:57:29;4.60;;;1.25;;
4527;SDS011;2276;51.520;6.818;2022-07-04T10:02:34;6.72;;;2.65;;
4527;SDS011;2276;51.520;6.818;2022-07-04T10:07:37;6.68;;;2.63;;
4527;SDS011;2276;51.520;6.818;2022-07-04T10:12:44;9.57;;;2.38;;
4527;SDS011;2276;51.520;6.818;2022-07-04T10:17:52;6.03;;;2.38;;
4527;SDS011;2276;51.520;6.818;2022-07-04T10:22:54;4.00;;;1.17;;
4527;SDS011;2276;51.520;6.818;2022-07-04T10:27:57;5.65;;;1.73;;
4527;SDS011;2276;51.520;6.818;2022-07-04T10:33:02;4.82;;;1.58;;
4527;SDS011;2276;51.520;6.818;2022-07-04T10:38:06;3.13;;;1.17;;
4527;SDS011;2276;51.520;6.818;2022-07-04T10:48:49;5.20;;;0.98;;
4527;SDS011;2276;51.520;6.818;2022-07-04T10:54:02;3.80;;;1.30;;
4527;SDS011;2276;51.520;6.818;2022-07-04T10:59:13;2.60;;;1.00;;
4527;SDS011;2276;51.520;6.818;2022-07-04T11:21:05;4.20;;;1.20;;
4527;SDS011;2276;51.520;6.818;2022-07-04T11:26:21;2.45;;;0.95;;
4527;SDS011;2276;51.520;6.818;2022-07-04T11:31:35;4.32;;;1.35;;
4527;SDS011;2276;51.520;6.818;2022-07-04T11:36:41;3.65;;;1.20;;
4527;SDS011;2276;51.520;6.818;2022-07-04T11:41:48;5.10;;;1.38;;
4527;SDS011;2276;51.520;6.818;2022-07-04T11:47:16;2.72;;;0.90;;
4527;SDS011;2276;51.520;6.818;2022-07-04T11:52:21;3.90;;;1.20;;
4527;SDS011;2276;51.520;6.818;2022-07-04T11:57:45;1.60;;;0.75;;
4527;SDS011;2276;51.520;6.818;2022-07-04T12:02:49;4.30;;;0.97;;
4527;SDS011;2276;51.520;6.818;2022-07-04T12:07:53;2.08;;;0.88;;
4527;SDS011;2276;51.520;6.818;2022-07-04T12:13:16;4.10;;;0.93;;
4527;SDS011;2276;51.520;6.818;2022-07-04T12:23:25;4.00;;;1.42;;
4527;SDS011;2276;51.520;6.818;2022-07-04T12:28:34;3.42;;;1.70;;
4527;SDS011;2276;51.520;6.818;2022-07-04T12:33:37;3.55;;;1.10;;
4527;SDS011;2276;51.520;6.818;2022-07-04T12:38:41;3.00;;;1.35;;
4527;SDS011;2276;51.520;6.818;2022-07-04T12:43:46;2.63;;;0.95;;
4527;SDS011;2276;51.520;6.818;2022-07-04T12:48:51;1.77;;;0.60;;
4527;SDS011;2276;51.520;6.818;2022-07-04T12:53:56;1.85;;;1.08;;
4527;SDS011;2276;51.520;6.818;2022-07-04T12:59:00;2.08;;;0.80;;
4527;SDS011;2276;51.520;6.818;2022-07-04T13:04:11;2.45;;;0.85;;
4527;SDS011;2276;51.520;6.818;2022-07-04T13:09:15;3.83;;;1.15;;
4527;SDS011;2276;51.520;6.818;2022-07-04T13:14:18;2.13;;;0.90;;
4527;SDS011;2276;51.520;6.818;2022-07-04T13:19:21;2.33;;;0.90;;
4527;SDS011;2276;51.520;6.818;2022-07-04T13:24:25;4.53;;;0.90;;
4527;SDS011;2276;51.520;6.818;2022-07-04T13:29:29;1.98;;;1.05;;
4527;SDS011;2276;51.520;6.818;2022-07-04T13:34:31;2.55;;;1.10;;
4527;SDS011;2276;51.520;6.818;2022-07-04T13:39:35;1.92;;;0.98;;
4527;SDS011;2276;51.520;6.818;2022-07-04T13:44:51;2.97;;;1.40;;
4527;SDS011;2276;51.520;6.818;2022-07-04T13:49:54;3.40;;;1.10;;
4527;SDS011;2276;51.520;6.818;2022-07-04T13:54:58;2.90;;;1.10;;
4527;SDS011;2276;51.520;6.818;2022-07-04T14:00:00;2.30;;;1.07;;
4527;SDS011;2276;51.520;6.818;2022-07-04T14:05:03;2.75;;;1.20;;
4527;SDS011;2276;51.520;6.818;2022-07-04T14:10:08;2.65;;;1.23;;
4527;SDS011;2276;51.520;6.818;2022-07-04T14:15:12;3.63;;;0.90;;
4527;SDS011;2276;51.520;6.818;2022-07-04T14:20:14;2.60;;;0.90;;
4527;SDS011;2276;51.520;6.818;2022-07-04T14:25:20;3.05;;;1.17;;
4527;SDS011;2276;51.520;6.818;2022-07-04T14:30:23;3.50;;;1.10;;
4527;SDS011;2276;51.520;6.818;2022-07-04T14:35:26;2.42;;;0.90;;
4527;SDS011;2276;51.520;6.818;2022-07-04T14:40:30;2.65;;;1.10;;
4527;SDS011;2276;51.520;6.818;2022-07-04T14:45:33;1.98;;;0.90;;
4527;SDS011;2276;51.520;6.818;2022-07-04T14:50:35;2.88;;;1.85;;
4527;SDS011;2276;51.520;6.818;2022-07-04T14:55:39;5.45;;;1.00;;
4527;SDS011;2276;51.520;6.818;2022-07-04T15:00:42;5.85;;;1.38;;
4527;SDS011;2276;51.520;6.818;2022-07-04T15:05:45;3.85;;;1.63;;
4527;SDS011;2276;51.520;6.818;2022-07-04T15:10:49;2.30;;;1.20;;
4527;SDS011;2276;51.520;6.818;2022-07-04T15:16:00;2.67;;;1.52;;
4527;SDS011;2276;51.520;6.818;2022-07-04T15:21:22;1.70;;;0.80;;
4527;SDS011;2276;51.520;6.818;2022-07-04T15:26:45;2.97;;;1.27;;
4527;SDS011;2276;51.520;6.818;2022-07-04T15:31:50;2.95;;;1.05;;
4527;SDS011;2276;51.520;6.818;2022-07-04T15:36:53;2.90;;;1.27;;
4527;SDS011;2276;51.520;6.818;2022-07-04T15:41:57;2.05;;;1.20;;
4527;SDS011;2276;51.520;6.818;2022-07-04T15:47:00;4.50;;;1.47;;
4527;SDS011;2276;51.520;6.818;2022-07-04T15:52:11;3.72;;;1.52;;
4527;SDS011;2276;51.520;6.818;2022-07-04T15:57:15;3.80;;;1.30;;
4527;SDS011;2276;51.520;6.818;2022-07-04T16:02:18;4.90;;;0.90;;
4527;SDS011;2276;51.520;6.818;2022-07-04T16:07:21;1.92;;;1.13;;
4527;SDS011;2276;51.520;6.818;2022-07-04T16:12:25;4.45;;;1.52;;
4527;SDS011;2276;51.520;6.818;2022-07-04T16:17:27;2.80;;;1.80;;
4527;SDS011;2276;51.520;6.818;2022-07-04T16:22:30;2.60;;;1.17;;
4527;SDS011;2276;51.520;6.818;2022-07-04T16:27:34;4.03;;;2.05;;
4527;SDS011;2276;51.520;6.818;2022-07-04T16:32:37;2.13;;;1.30;;
4527;SDS011;2276;51.520;6.818;2022-07-04T16:37:39;3.95;;;1.73;;
4527;SDS011;2276;51.520;6.818;2022-07-04T16:42:44;4.10;;;1.75;;
4527;SDS011;2276;51.520;6.818;2022-07-04T16:47:46;6.47;;;2.65;;
4527;SDS011;2276;51.520;6.818;2022-07-04T16:52:49;3.15;;;2.17;;
4527;SDS011;2276;51.520;6.818;2022-07-04T16:57:53;3.22;;;2.00;;
4527;SDS011;2276;51.520;6.818;2022-07-04T17:02:56;2.53;;;1.90;;
4527;SDS011;2276;51.520;6.818;2022-07-04T17:07:58;5.07;;;2.25;;
4527;SDS011;2276;51.520;6.818;2022-07-04T17:13:03;5.22;;;2.63;;
4527;SDS011;2276;51.520;6.818;2022-07-04T17:18:12;3.38;;;2.15;;
4527;SDS011;2276;51.520;6.818;2022-07-04T17:23:15;2.97;;;1.88;;
4527;SDS011;2276;51.520;6.818;2022-07-04T17:28:20;2.80;;;2.33;;
4527;SDS011;2276;51.520;6.818;2022-07-04T17:33:23;2.80;;;1.80;;
4527;SDS011;2276;51.520;6.818;2022-07-04T17:38:25;3.60;;;1.98;;
4527;SDS011;2276;51.520;6.818;2022-07-04T17:43:30;4.47;;;1.95;;
4527;SDS011;2276;51.520;6.818;2022-07-04T17:48:32;3.80;;;1.88;;
4527;SDS011;2276;51.520;6.818;2022-07-04T17:53:35;3.90;;;1.92;;
4527;SDS011;2276;51.520;6.818;2022-07-04T17:58:39;3.35;;;1.60;;
4527;SDS011;2276;51.520;6.818;2022-07-04T18:03:42;6.57;;;2.13;;
4527;SDS011;2276;51.520;6.818;2022-07-04T18:08:45;4.68;;;2.67;;
4527;SDS011;2276;51.520;6.818;2022-07-04T18:13:49;4.57;;;3.08;;
4527;SDS011;2276;51.520;6.818;2022-07-04T18:18:51;3.97;;;1.60;;
4527;SDS011;2276;51.520;6.818;2022-07-04T18:23:54;3.67;;;2.05;;
4527;SDS011;2276;51.520;6.818;2022-07-04T18:28:59;4.82;;;2.30;;
4527;SDS011;2276;51.520;6.818;2022-07-04T18:34:02;5.00;;;1.60;;
4527;SDS011;2276;51.520;6.818;2022-07-04T18:39:04;3.88;;;2.05;;
4527;SDS011;2276;51.520;6.818;2022-07-04T18:44:08;2.92;;;1.70;;
4527;SDS011;2276;51.520;6.818;2022-07-04T18:49:11;3.40;;;1.43;;
4527;SDS011;2276;51.520;6.818;2022-07-04T18:54:14;4.20;;;1.90;;
4527;SDS011;2276;51.520;6.818;2022-07-04T18:59:18;5.95;;;2.25;;
4527;SDS011;2276;51.520;6.818;2022-07-04T19:04:21;2.15;;;1.30;;
4527;SDS011;2276;51.520;6.818;2022-07-04T19:09:24;1.88;;;1.58;;
4527;SDS011;2276;51.520;6.818;2022-07-04T19:14:29;5.40;;;1.47;;
4527;SDS011;2276;51.520;6.818;2022-07-04T19:19:32;2.63;;;1.43;;
4527;SDS011;2276;51.520;6.818;2022-07-04T19:24:35;2.92;;;1.52;;
4527;SDS011;2276;51.520;6.818;2022-07-04T19:29:39;2.33;;;1.60;;
4527;SDS011;2276;51.520;6.818;2022-07-04T19:34:43;2.80;;;1.40;;
4527;SDS011;2276;51.520;6.818;2022-07-04T19:39:46;4.75;;;1.92;;
4527;SDS011;2276;51.520;6.818;2022-07-04T19:44:51;3.03;;;1.15;;
4527;SDS011;2276;51.520;6.818;2022-07-04T19:49:54;2.42;;;1.88;;
4527;SDS011;2276;51.520;6.818;2022-07-04T19:54:57;3.65;;;2.83;;
4527;SDS011;2276;51.520;6.818;2022-07-04T20:00:03;1.77;;;1.50;;
4527;SDS011;2276;51.520;6.818;2022-07-04T20:05:07;7.45;;;1.63;;
4527;SDS011;2276;51.520;6.818;2022-07-04T20:10:12;3.63;;;1.45;;
4527;SDS011;2276;51.520;6.818;2022-07-04T20:15:16;8.25;;;2.22;;
4527;SDS011;2276;51.520;6.818;2022-07-04T20:20:19;1.60;;;1.47;;
4527;SDS011;2276;51.520;6.818;2022-07-04T20:25:22;4.65;;;1.73;;
4527;SDS011;2276;51.520;6.818;2022-07-04T20:30:26;2.95;;;1.80;;
4527;SDS011;2276;51.520;6.818;2022-07-04T20:35:29;4.20;;;2.00;;
4527;SDS011;2276;51.520;6.818;2022-07-04T20:40:32;3.33;;;1.60;;
4527;SDS011;2276;51.520;6.818;2022-07-04T20:45:36;3.88;;;1.60;;
4527;SDS011;2276;51.520;6.818;2022-07-04T20:50:38;2.97;;;2.30;;
4527;SDS011;2276;51.520;6.818;2022-07-04T20:55:41;2.33;;;1.60;;
4527;SDS011;2276;51.520;6.818;2022-07-04T21:00:46;3.40;;;1.65;;
4527;SDS011;2276;51.520;6.818;2022-07-04T21:05:48;2.67;;;1.30;;
4527;SDS011;2276;51.520;6.818;2022-07-04T21:10:51;2.95;;;2.10;;
4527;SDS011;2276;51.520;6.818;2022-07-04T21:15:55;2.03;;;1.58;;
4527;SDS011;2276;51.520;6.818;2022-07-04T21:20:58;4.17;;;1.73;;
4527;SDS011;2276;51.520;6.818;2022-07-04T21:26:01;3.40;;;1.50;;
4527;SDS011;2276;51.520;6.818;2022-07-04T21:31:05;5.72;;;1.83;;
4527;SDS011;2276;51.520;6.818;2022-07-04T21:36:13;2.88;;;1.63;;
4527;SDS011;2276;51.520;6.818;2022-07-04T21:41:16;3.13;;;1.50;;
4527;SDS011;2276;51.520;6.818;2022-07-04T21:46:20;2.28;;;1.58;;
4527;SDS011;2276;51.520;6.818;2022-07-04T21:51:23;3.47;;;2.10;;
4527;SDS011;2276;51.520;6.818;2022-07-04T21:56:26;3.50;;;1.40;;
4527;SDS011;2276;51.520;6.818;2022-07-04T22:01:30;2.88;;;1.90;;
4527;SDS011;2276;51.520;6.818;2022-07-04T22:06:33;3.78;;;1.80;;
4527;SDS011;2276;51.520;6.818;2022-07-04T22:11:35;3.70;;;2.05;;
4527;SDS011;2276;51.520;6.818;2022-07-04T22:16:40;2.10;;;1.90;;
4527;SDS011;2276;51.520;6.818;2022-07-04T22:21:42;1.67;;;1.10;;
4527;SDS011;2276;51.520;6.818;2022-07-04T22:26:45;2.88;;;2.15;;
4527;SDS011;2276;51.520;6.818;2022-07-04T22:31:49;2.78;;;1.50;;
4527;SDS011;2276;51.520;6.818;2022-07-04T22:36:52;5.72;;;1.38;;
4527;SDS011;2276;51.520;6.818;2022-07-04T22:41:55;2.50;;;1.40;;
4527;SDS011;2276;51.520;6.818;2022-07-04T22:46:59;1.73;;;1.45;;
4527;SDS011;2276;51.520;6.818;2022-07-04T22:52:01;2.00;;;1.55;;
4527;SDS011;2276;51.520;6.818;2022-07-04T22:57:04;3.50;;;1.77;;
4527;SDS011;2276;51.520;6.818;2022-07-04T23:02:08;2.42;;;1.40;;
4527;SDS011;2276;51.520;6.818;2022-07-04T23:07:11;5.53;;;2.03;;
4527;SDS011;2276;51.520;6.818;2022-07-04T23:12:14;2.10;;;1.85;;
4527;SDS011;2276;51.520;6.818;2022-07-04T23:17:19;3.67;;;1.75;;
4527;SDS011;2276;51.520;6.818;2022-07-04T23:22:21;3.17;;;1.80;;
4527;SDS011;2276;51.520;6.818;2022-07-04T23:27:24;3.25;;;1.75;;
4527;SDS011;2276;51.520;6.818;2022-07-04T23:32:28;3.17;;;1.90;;
4527;SDS011;2276;51.520;6.818;2022-07-04T23:37:31;2.35;;;1.63;;
4527;SDS011;2276;51.520;6.818;2022-07-04T23:42:33;2.20;;;1.65;;
4527;SDS011;2276;51.520;6.818;2022-07-04T23:47:37;3.85;;;1.92;;
4527;SDS011;2276;51.520;6.818;2022-07-04T23:52:40;2.20;;;1.42;;
4527;SDS011;2276;51.520;6.818;2022-07-04T23:57:43;3.42;;;1.40;;
